sensor_id;sensor_type;location;lat;lon;timestamp;P1;durP1;ratioP1;P2;durP2;ratioP2
36691;SDS011;22678;52.052;4.242;2023-05-07T00:00:12;30.50;;;19.42;;
36691;SDS011;22678;52.052;4.242;2023-05-07T00:02:40;36.17;;;21.15;;
36691;SDS011;22678;52.052;4.242;2023-05-07T00:05:06;32.17;;;19.52;;
36691;SDS011;22678;52.052;4.242;2023-05-07T00:07:32;30.90;;;19.92;;
36691;SDS011;22678;52.052;4.242;2023-05-07T00:09:57;30.85;;;18.90;;
36691;SDS011;22678;52.052;4.242;2023-05-07T00:12:22;36.20;;;22.08;;
36691;SDS011;22678;52.052;4.242;2023-05-07T00:14:48;31.65;;;19.48;;
36691;SDS011;22678;52.052;4.242;2023-05-07T00:17:13;44.72;;;24.50;;
36691;SDS011;22678;52.052;4.242;2023-05-07T00:19:38;28.50;;;18.95;;
36691;SDS011;22678;52.052;4.242;2023-05-07T00:22:04;28.65;;;18.42;;
36691;SDS011;22678;52.052;4.242;2023-05-07T00:24:29;36.65;;;18.83;;
36691;SDS011;22678;52.052;4.242;2023-05-07T00:26:54;31.52;;;20.45;;
36691;SDS011;22678;52.052;4.242;2023-05-07T00:29:20;30.17;;;19.00;;
36691;SDS011;22678;52.052;4.242;2023-05-07T00:31:45;33.42;;;21.80;;
36691;SDS011;22678;52.052;4.242;2023-05-07T00:34:10;39.25;;;21.40;;
36691;SDS011;22678;52.052;4.242;2023-05-07T00:36:36;36.13;;;20.23;;
36691;SDS011;22678;52.052;4.242;2023-05-07T00:39:01;35.15;;;23.70;;
36691;SDS011;22678;52.052;4.242;2023-05-07T00:41:28;29.55;;;19.70;;
36691;SDS011;22678;52.052;4.242;2023-05-07T00:43:55;29.73;;;20.50;;
36691;SDS011;22678;52.052;4.242;2023-05-07T00:46:20;38.13;;;20.23;;
36691;SDS011;22678;52.052;4.242;2023-05-07T00:48:46;33.50;;;19.92;;
36691;SDS011;22678;52.052;4.242;2023-05-07T00:51:12;36.05;;;20.80;;
36691;SDS011;22678;52.052;4.242;2023-05-07T00:53:38;34.97;;;20.67;;
36691;SDS011;22678;52.052;4.242;2023-05-07T00:56:04;31.08;;;20.25;;
36691;SDS011;22678;52.052;4.242;2023-05-07T00:58:31;30.30;;;19.83;;
36691;SDS011;22678;52.052;4.242;2023-05-07T01:00:57;31.48;;;21.38;;
36691;SDS011;22678;52.052;4.242;2023-05-07T01:03:23;34.80;;;21.17;;
36691;SDS011;22678;52.052;4.242;2023-05-07T01:05:48;36.85;;;21.17;;
36691;SDS011;22678;52.052;4.242;2023-05-07T01:08:16;31.73;;;18.30;;
36691;SDS011;22678;52.052;4.242;2023-05-07T01:10:43;32.50;;;18.23;;
36691;SDS011;22678;52.052;4.242;2023-05-07T01:13:09;36.47;;;20.13;;
36691;SDS011;22678;52.052;4.242;2023-05-07T01:15:36;33.28;;;21.02;;
36691;SDS011;22678;52.052;4.242;2023-05-07T01:18:02;30.55;;;19.92;;
36691;SDS011;22678;52.052;4.242;2023-05-07T01:20:28;31.75;;;21.77;;
36691;SDS011;22678;52.052;4.242;2023-05-07T01:22:53;32.92;;;19.25;;
36691;SDS011;22678;52.052;4.242;2023-05-07T01:25:20;29.42;;;19.58;;
36691;SDS011;22678;52.052;4.242;2023-05-07T01:27:45;29.83;;;18.20;;
36691;SDS011;22678;52.052;4.242;2023-05-07T01:30:11;30.38;;;19.15;;
36691;SDS011;22678;52.052;4.242;2023-05-07T01:32:42;32.67;;;17.00;;
36691;SDS011;22678;52.052;4.242;2023-05-07T01:35:11;28.42;;;18.58;;
36691;SDS011;22678;52.052;4.242;2023-05-07T01:37:39;29.98;;;19.38;;
36691;SDS011;22678;52.052;4.242;2023-05-07T01:40:05;30.13;;;17.40;;
36691;SDS011;22678;52.052;4.242;2023-05-07T01:42:32;32.10;;;16.42;;
36691;SDS011;22678;52.052;4.242;2023-05-07T01:44:58;31.55;;;17.33;;
36691;SDS011;22678;52.052;4.242;2023-05-07T01:47:23;31.05;;;19.08;;
36691;SDS011;22678;52.052;4.242;2023-05-07T01:49:50;27.95;;;17.38;;
36691;SDS011;22678;52.052;4.242;2023-05-07T01:52:15;26.85;;;17.25;;
36691;SDS011;22678;52.052;4.242;2023-05-07T01:54:41;29.08;;;17.05;;
36691;SDS011;22678;52.052;4.242;2023-05-07T01:57:06;31.48;;;21.25;;
36691;SDS011;22678;52.052;4.242;2023-05-07T01:59:31;28.92;;;18.02;;
36691;SDS011;22678;52.052;4.242;2023-05-07T02:01:57;29.25;;;17.52;;
36691;SDS011;22678;52.052;4.242;2023-05-07T02:04:22;22.98;;;15.25;;
36691;SDS011;22678;52.052;4.242;2023-05-07T02:06:47;27.00;;;17.50;;
36691;SDS011;22678;52.052;4.242;2023-05-07T02:09:13;28.95;;;16.10;;
36691;SDS011;22678;52.052;4.242;2023-05-07T02:11:39;21.55;;;15.82;;
36691;SDS011;22678;52.052;4.242;2023-05-07T02:14:04;29.05;;;19.17;;
36691;SDS011;22678;52.052;4.242;2023-05-07T02:16:30;23.08;;;15.55;;
36691;SDS011;22678;52.052;4.242;2023-05-07T02:18:55;25.27;;;16.15;;
36691;SDS011;22678;52.052;4.242;2023-05-07T02:21:21;26.58;;;15.98;;
36691;SDS011;22678;52.052;4.242;2023-05-07T02:23:46;27.58;;;16.38;;
36691;SDS011;22678;52.052;4.242;2023-05-07T02:26:12;23.90;;;15.10;;
36691;SDS011;22678;52.052;4.242;2023-05-07T02:28:37;24.35;;;16.00;;
36691;SDS011;22678;52.052;4.242;2023-05-07T02:31:05;25.35;;;14.50;;
36691;SDS011;22678;52.052;4.242;2023-05-07T02:33:31;25.17;;;15.00;;
36691;SDS011;22678;52.052;4.242;2023-05-07T02:35:56;29.92;;;16.85;;
36691;SDS011;22678;52.052;4.242;2023-05-07T02:38:22;24.70;;;14.63;;
36691;SDS011;22678;52.052;4.242;2023-05-07T02:40:47;26.20;;;15.05;;
36691;SDS011;22678;52.052;4.242;2023-05-07T02:43:13;23.40;;;13.57;;
36691;SDS011;22678;52.052;4.242;2023-05-07T02:45:38;21.65;;;13.65;;
36691;SDS011;22678;52.052;4.242;2023-05-07T02:48:04;29.02;;;15.35;;
36691;SDS011;22678;52.052;4.242;2023-05-07T02:50:31;22.90;;;15.23;;
36691;SDS011;22678;52.052;4.242;2023-05-07T02:52:57;20.45;;;13.95;;
36691;SDS011;22678;52.052;4.242;2023-05-07T02:55:23;21.95;;;14.43;;
36691;SDS011;22678;52.052;4.242;2023-05-07T02:57:48;24.02;;;16.27;;
36691;SDS011;22678;52.052;4.242;2023-05-07T03:00:14;24.00;;;15.40;;
36691;SDS011;22678;52.052;4.242;2023-05-07T03:02:41;21.17;;;14.52;;
36691;SDS011;22678;52.052;4.242;2023-05-07T03:05:07;28.85;;;15.75;;
36691;SDS011;22678;52.052;4.242;2023-05-07T03:07:32;26.33;;;15.13;;
36691;SDS011;22678;52.052;4.242;2023-05-07T03:09:58;24.70;;;16.65;;
36691;SDS011;22678;52.052;4.242;2023-05-07T03:12:23;25.70;;;16.08;;
36691;SDS011;22678;52.052;4.242;2023-05-07T03:14:48;26.65;;;16.25;;
36691;SDS011;22678;52.052;4.242;2023-05-07T03:17:14;24.90;;;14.82;;
36691;SDS011;22678;52.052;4.242;2023-05-07T03:19:41;21.48;;;14.40;;
36691;SDS011;22678;52.052;4.242;2023-05-07T03:22:06;29.40;;;16.30;;
36691;SDS011;22678;52.052;4.242;2023-05-07T03:24:31;22.80;;;15.27;;
36691;SDS011;22678;52.052;4.242;2023-05-07T03:26:56;20.25;;;15.20;;
36691;SDS011;22678;52.052;4.242;2023-05-07T03:29:22;25.33;;;16.73;;
36691;SDS011;22678;52.052;4.242;2023-05-07T03:31:48;26.42;;;16.73;;
36691;SDS011;22678;52.052;4.242;2023-05-07T03:34:13;27.15;;;17.88;;
36691;SDS011;22678;52.052;4.242;2023-05-07T03:36:38;23.08;;;15.18;;
36691;SDS011;22678;52.052;4.242;2023-05-07T03:39:04;23.52;;;15.45;;
36691;SDS011;22678;52.052;4.242;2023-05-07T03:41:29;21.85;;;17.38;;
36691;SDS011;22678;52.052;4.242;2023-05-07T03:43:55;19.90;;;14.30;;
36691;SDS011;22678;52.052;4.242;2023-05-07T03:46:20;25.35;;;15.93;;
36691;SDS011;22678;52.052;4.242;2023-05-07T03:48:45;24.33;;;15.43;;
36691;SDS011;22678;52.052;4.242;2023-05-07T03:51:11;24.77;;;16.25;;
36691;SDS011;22678;52.052;4.242;2023-05-07T03:53:36;23.98;;;15.45;;
36691;SDS011;22678;52.052;4.242;2023-05-07T03:56:01;20.90;;;13.07;;
36691;SDS011;22678;52.052;4.242;2023-05-07T03:58:27;25.40;;;17.17;;
36691;SDS011;22678;52.052;4.242;2023-05-07T04:00:52;24.60;;;16.05;;
36691;SDS011;22678;52.052;4.242;2023-05-07T04:03:18;24.73;;;16.35;;
36691;SDS011;22678;52.052;4.242;2023-05-07T04:05:43;22.05;;;15.23;;
36691;SDS011;22678;52.052;4.242;2023-05-07T04:08:08;23.67;;;15.07;;
36691;SDS011;22678;52.052;4.242;2023-05-07T04:10:34;29.52;;;17.75;;
36691;SDS011;22678;52.052;4.242;2023-05-07T04:12:59;26.15;;;16.70;;
36691;SDS011;22678;52.052;4.242;2023-05-07T04:15:24;24.48;;;16.08;;
36691;SDS011;22678;52.052;4.242;2023-05-07T04:17:50;20.75;;;13.20;;
36691;SDS011;22678;52.052;4.242;2023-05-07T04:20:15;24.38;;;15.30;;
36691;SDS011;22678;52.052;4.242;2023-05-07T04:22:41;27.58;;;16.48;;
36691;SDS011;22678;52.052;4.242;2023-05-07T04:25:07;23.60;;;14.98;;
36691;SDS011;22678;52.052;4.242;2023-05-07T04:27:36;22.92;;;16.52;;
36691;SDS011;22678;52.052;4.242;2023-05-07T04:30:02;23.35;;;16.75;;
36691;SDS011;22678;52.052;4.242;2023-05-07T04:32:28;20.88;;;14.07;;
36691;SDS011;22678;52.052;4.242;2023-05-07T04:34:55;19.70;;;15.23;;
36691;SDS011;22678;52.052;4.242;2023-05-07T04:37:21;23.50;;;15.75;;
36691;SDS011;22678;52.052;4.242;2023-05-07T04:39:46;20.50;;;14.02;;
36691;SDS011;22678;52.052;4.242;2023-05-07T04:42:15;24.05;;;15.20;;
36691;SDS011;22678;52.052;4.242;2023-05-07T04:44:41;20.17;;;13.05;;
36691;SDS011;22678;52.052;4.242;2023-05-07T04:47:06;20.80;;;14.95;;
36691;SDS011;22678;52.052;4.242;2023-05-07T04:49:32;29.73;;;14.23;;
36691;SDS011;22678;52.052;4.242;2023-05-07T04:51:57;21.23;;;13.40;;
36691;SDS011;22678;52.052;4.242;2023-05-07T04:54:22;22.63;;;14.38;;
36691;SDS011;22678;52.052;4.242;2023-05-07T04:56:47;20.95;;;14.73;;
36691;SDS011;22678;52.052;4.242;2023-05-07T04:59:13;20.60;;;16.27;;
36691;SDS011;22678;52.052;4.242;2023-05-07T05:01:38;24.60;;;15.30;;
36691;SDS011;22678;52.052;4.242;2023-05-07T05:04:03;21.40;;;14.52;;
36691;SDS011;22678;52.052;4.242;2023-05-07T05:06:28;20.17;;;14.50;;
36691;SDS011;22678;52.052;4.242;2023-05-07T05:08:54;19.15;;;13.98;;
36691;SDS011;22678;52.052;4.242;2023-05-07T05:11:20;22.98;;;14.90;;
36691;SDS011;22678;52.052;4.242;2023-05-07T05:13:45;24.48;;;14.05;;
36691;SDS011;22678;52.052;4.242;2023-05-07T05:16:13;18.98;;;14.32;;
36691;SDS011;22678;52.052;4.242;2023-05-07T05:18:39;21.27;;;13.82;;
36691;SDS011;22678;52.052;4.242;2023-05-07T05:21:05;22.35;;;15.20;;
36691;SDS011;22678;52.052;4.242;2023-05-07T05:23:30;21.13;;;15.43;;
36691;SDS011;22678;52.052;4.242;2023-05-07T05:25:56;18.58;;;14.23;;
36691;SDS011;22678;52.052;4.242;2023-05-07T05:28:22;19.00;;;15.32;;
36691;SDS011;22678;52.052;4.242;2023-05-07T05:30:48;21.42;;;14.52;;
36691;SDS011;22678;52.052;4.242;2023-05-07T05:33:13;20.88;;;14.38;;
36691;SDS011;22678;52.052;4.242;2023-05-07T05:35:39;23.13;;;16.00;;
36691;SDS011;22678;52.052;4.242;2023-05-07T05:38:04;21.65;;;13.60;;
36691;SDS011;22678;52.052;4.242;2023-05-07T05:40:30;18.73;;;13.55;;
36691;SDS011;22678;52.052;4.242;2023-05-07T05:42:55;21.83;;;14.55;;
36691;SDS011;22678;52.052;4.242;2023-05-07T05:45:21;21.83;;;14.32;;
36691;SDS011;22678;52.052;4.242;2023-05-07T05:47:46;23.33;;;13.73;;
36691;SDS011;22678;52.052;4.242;2023-05-07T05:50:11;25.23;;;17.98;;
36691;SDS011;22678;52.052;4.242;2023-05-07T05:52:36;19.58;;;14.57;;
36691;SDS011;22678;52.052;4.242;2023-05-07T05:55:02;23.52;;;16.55;;
36691;SDS011;22678;52.052;4.242;2023-05-07T05:57:27;16.92;;;14.13;;
36691;SDS011;22678;52.052;4.242;2023-05-07T05:59:53;20.75;;;14.40;;
36691;SDS011;22678;52.052;4.242;2023-05-07T06:02:18;17.00;;;13.60;;
36691;SDS011;22678;52.052;4.242;2023-05-07T06:04:43;25.02;;;15.43;;
36691;SDS011;22678;52.052;4.242;2023-05-07T06:07:09;19.05;;;13.65;;
36691;SDS011;22678;52.052;4.242;2023-05-07T06:09:34;20.05;;;13.88;;
36691;SDS011;22678;52.052;4.242;2023-05-07T06:11:59;16.17;;;12.55;;
36691;SDS011;22678;52.052;4.242;2023-05-07T06:14:25;20.15;;;13.85;;
36691;SDS011;22678;52.052;4.242;2023-05-07T06:16:50;18.02;;;13.77;;
36691;SDS011;22678;52.052;4.242;2023-05-07T06:19:15;16.83;;;12.50;;
36691;SDS011;22678;52.052;4.242;2023-05-07T06:21:43;18.85;;;14.73;;
36691;SDS011;22678;52.052;4.242;2023-05-07T06:24:08;18.20;;;13.13;;
36691;SDS011;22678;52.052;4.242;2023-05-07T06:26:33;18.13;;;14.15;;
36691;SDS011;22678;52.052;4.242;2023-05-07T06:28:59;15.50;;;11.93;;
36691;SDS011;22678;52.052;4.242;2023-05-07T06:31:28;17.73;;;12.20;;
36691;SDS011;22678;52.052;4.242;2023-05-07T06:33:55;18.08;;;14.13;;
36691;SDS011;22678;52.052;4.242;2023-05-07T06:36:21;15.88;;;13.20;;
36691;SDS011;22678;52.052;4.242;2023-05-07T06:38:46;13.20;;;11.32;;
36691;SDS011;22678;52.052;4.242;2023-05-07T06:41:11;15.95;;;11.73;;
36691;SDS011;22678;52.052;4.242;2023-05-07T06:43:36;16.20;;;12.52;;
36691;SDS011;22678;52.052;4.242;2023-05-07T06:46:02;17.23;;;12.18;;
36691;SDS011;22678;52.052;4.242;2023-05-07T06:48:27;13.68;;;9.88;;
36691;SDS011;22678;52.052;4.242;2023-05-07T06:50:52;14.15;;;10.07;;
36691;SDS011;22678;52.052;4.242;2023-05-07T06:53:20;14.15;;;11.02;;
36691;SDS011;22678;52.052;4.242;2023-05-07T06:55:45;15.77;;;11.10;;
36691;SDS011;22678;52.052;4.242;2023-05-07T06:58:10;16.77;;;9.93;;
36691;SDS011;22678;52.052;4.242;2023-05-07T07:00:36;14.02;;;10.15;;
36691;SDS011;22678;52.052;4.242;2023-05-07T07:03:01;12.57;;;8.60;;
36691;SDS011;22678;52.052;4.242;2023-05-07T07:05:26;16.00;;;11.25;;
36691;SDS011;22678;52.052;4.242;2023-05-07T07:07:52;14.63;;;10.25;;
36691;SDS011;22678;52.052;4.242;2023-05-07T07:10:20;10.93;;;8.63;;
36691;SDS011;22678;52.052;4.242;2023-05-07T07:12:46;14.18;;;9.63;;
36691;SDS011;22678;52.052;4.242;2023-05-07T07:15:12;13.73;;;10.95;;
36691;SDS011;22678;52.052;4.242;2023-05-07T07:17:38;10.95;;;8.60;;
36691;SDS011;22678;52.052;4.242;2023-05-07T07:20:04;12.38;;;8.48;;
36691;SDS011;22678;52.052;4.242;2023-05-07T07:22:30;12.07;;;10.07;;
36691;SDS011;22678;52.052;4.242;2023-05-07T07:24:55;9.23;;;7.88;;
36691;SDS011;22678;52.052;4.242;2023-05-07T07:27:20;11.80;;;8.82;;
36691;SDS011;22678;52.052;4.242;2023-05-07T07:29:46;12.93;;;7.75;;
36691;SDS011;22678;52.052;4.242;2023-05-07T07:32:11;12.68;;;8.75;;
36691;SDS011;22678;52.052;4.242;2023-05-07T07:34:36;13.27;;;8.57;;
36691;SDS011;22678;52.052;4.242;2023-05-07T07:37:02;8.70;;;7.10;;
36691;SDS011;22678;52.052;4.242;2023-05-07T07:39:30;11.50;;;7.28;;
36691;SDS011;22678;52.052;4.242;2023-05-07T07:41:56;11.90;;;7.85;;
36691;SDS011;22678;52.052;4.242;2023-05-07T07:44:21;14.18;;;8.90;;
36691;SDS011;22678;52.052;4.242;2023-05-07T07:46:46;15.52;;;9.45;;
36691;SDS011;22678;52.052;4.242;2023-05-07T07:49:12;19.27;;;9.13;;
36691;SDS011;22678;52.052;4.242;2023-05-07T07:51:37;11.00;;;6.82;;
36691;SDS011;22678;52.052;4.242;2023-05-07T07:54:03;13.18;;;6.50;;
36691;SDS011;22678;52.052;4.242;2023-05-07T07:56:28;11.65;;;7.68;;
36691;SDS011;22678;52.052;4.242;2023-05-07T07:58:53;11.30;;;6.45;;
36691;SDS011;22678;52.052;4.242;2023-05-07T08:01:19;12.98;;;7.15;;
36691;SDS011;22678;52.052;4.242;2023-05-07T08:03:44;16.42;;;7.57;;
36691;SDS011;22678;52.052;4.242;2023-05-07T08:06:10;17.90;;;8.38;;
36691;SDS011;22678;52.052;4.242;2023-05-07T08:08:35;9.07;;;6.32;;
36691;SDS011;22678;52.052;4.242;2023-05-07T08:11:01;11.77;;;5.95;;
36691;SDS011;22678;52.052;4.242;2023-05-07T08:13:26;6.85;;;4.53;;
36691;SDS011;22678;52.052;4.242;2023-05-07T08:15:51;17.27;;;5.03;;
36691;SDS011;22678;52.052;4.242;2023-05-07T08:18:17;10.52;;;5.28;;
36691;SDS011;22678;52.052;4.242;2023-05-07T08:20:42;8.02;;;4.57;;
36691;SDS011;22678;52.052;4.242;2023-05-07T08:23:08;7.10;;;4.22;;
36691;SDS011;22678;52.052;4.242;2023-05-07T08:25:33;7.97;;;5.20;;
36691;SDS011;22678;52.052;4.242;2023-05-07T08:27:59;7.82;;;5.97;;
36691;SDS011;22678;52.052;4.242;2023-05-07T08:30:25;10.35;;;4.90;;
36691;SDS011;22678;52.052;4.242;2023-05-07T08:32:50;10.18;;;4.65;;
36691;SDS011;22678;52.052;4.242;2023-05-07T08:35:16;15.48;;;6.22;;
36691;SDS011;22678;52.052;4.242;2023-05-07T08:37:41;11.15;;;4.50;;
36691;SDS011;22678;52.052;4.242;2023-05-07T08:40:06;12.10;;;4.93;;
36691;SDS011;22678;52.052;4.242;2023-05-07T08:42:33;13.43;;;5.07;;
36691;SDS011;22678;52.052;4.242;2023-05-07T08:45:01;14.80;;;5.13;;
36691;SDS011;22678;52.052;4.242;2023-05-07T08:47:34;13.00;;;5.57;;
36691;SDS011;22678;52.052;4.242;2023-05-07T08:50:05;13.40;;;7.18;;
36691;SDS011;22678;52.052;4.242;2023-05-07T08:52:31;13.73;;;8.13;;
36691;SDS011;22678;52.052;4.242;2023-05-07T08:54:56;13.23;;;5.65;;
36691;SDS011;22678;52.052;4.242;2023-05-07T08:57:23;11.93;;;4.93;;
36691;SDS011;22678;52.052;4.242;2023-05-07T08:59:49;10.88;;;4.38;;
36691;SDS011;22678;52.052;4.242;2023-05-07T09:02:15;11.40;;;4.90;;
36691;SDS011;22678;52.052;4.242;2023-05-07T09:04:41;10.55;;;4.65;;
36691;SDS011;22678;52.052;4.242;2023-05-07T09:07:06;14.02;;;7.15;;
36691;SDS011;22678;52.052;4.242;2023-05-07T09:09:32;10.07;;;4.57;;
36691;SDS011;22678;52.052;4.242;2023-05-07T09:11:58;14.43;;;5.15;;
36691;SDS011;22678;52.052;4.242;2023-05-07T09:14:25;10.40;;;4.70;;
36691;SDS011;22678;52.052;4.242;2023-05-07T09:16:51;9.23;;;5.07;;
36691;SDS011;22678;52.052;4.242;2023-05-07T09:19:21;10.82;;;4.30;;
36691;SDS011;22678;52.052;4.242;2023-05-07T09:21:48;11.45;;;4.03;;
36691;SDS011;22678;52.052;4.242;2023-05-07T09:24:15;6.93;;;4.15;;
36691;SDS011;22678;52.052;4.242;2023-05-07T09:26:41;8.98;;;3.97;;
36691;SDS011;22678;52.052;4.242;2023-05-07T09:29:07;14.45;;;7.75;;
36691;SDS011;22678;52.052;4.242;2023-05-07T09:31:36;10.10;;;4.88;;
36691;SDS011;22678;52.052;4.242;2023-05-07T09:34:04;9.55;;;4.50;;
36691;SDS011;22678;52.052;4.242;2023-05-07T09:36:29;10.40;;;5.55;;
36691;SDS011;22678;52.052;4.242;2023-05-07T09:38:58;9.20;;;5.00;;
36691;SDS011;22678;52.052;4.242;2023-05-07T09:41:25;8.43;;;4.72;;
36691;SDS011;22678;52.052;4.242;2023-05-07T09:43:54;13.65;;;5.07;;
36691;SDS011;22678;52.052;4.242;2023-05-07T09:46:20;10.73;;;7.15;;
36691;SDS011;22678;52.052;4.242;2023-05-07T09:48:53;9.52;;;5.53;;
36691;SDS011;22678;52.052;4.242;2023-05-07T09:51:28;13.80;;;6.78;;
36691;SDS011;22678;52.052;4.242;2023-05-07T09:53:56;12.38;;;5.45;;
36691;SDS011;22678;52.052;4.242;2023-05-07T09:56:26;14.40;;;5.47;;
36691;SDS011;22678;52.052;4.242;2023-05-07T09:58:52;13.52;;;6.00;;
36691;SDS011;22678;52.052;4.242;2023-05-07T10:01:19;10.38;;;6.10;;
36691;SDS011;22678;52.052;4.242;2023-05-07T10:03:47;8.23;;;5.82;;
36691;SDS011;22678;52.052;4.242;2023-05-07T10:06:15;11.32;;;5.43;;
36691;SDS011;22678;52.052;4.242;2023-05-07T10:08:42;13.45;;;5.75;;
36691;SDS011;22678;52.052;4.242;2023-05-07T10:11:08;12.90;;;7.25;;
36691;SDS011;22678;52.052;4.242;2023-05-07T10:13:34;13.55;;;7.85;;
36691;SDS011;22678;52.052;4.242;2023-05-07T10:16:01;13.10;;;7.97;;
36691;SDS011;22678;52.052;4.242;2023-05-07T10:18:28;14.23;;;8.05;;
36691;SDS011;22678;52.052;4.242;2023-05-07T10:20:58;11.98;;;7.65;;
36691;SDS011;22678;52.052;4.242;2023-05-07T10:23:59;12.25;;;8.38;;
36691;SDS011;22678;52.052;4.242;2023-05-07T10:26:28;13.73;;;7.35;;
36691;SDS011;22678;52.052;4.242;2023-05-07T10:32:13;10.50;;;5.65;;
36691;SDS011;22678;52.052;4.242;2023-05-07T10:35:02;13.50;;;7.78;;
36691;SDS011;22678;52.052;4.242;2023-05-07T10:37:30;15.13;;;7.50;;
36691;SDS011;22678;52.052;4.242;2023-05-07T10:39:55;12.50;;;7.85;;
36691;SDS011;22678;52.052;4.242;2023-05-07T10:42:22;12.85;;;6.50;;
36691;SDS011;22678;52.052;4.242;2023-05-07T10:44:48;13.32;;;8.65;;
36691;SDS011;22678;52.052;4.242;2023-05-07T10:47:14;15.90;;;8.45;;
36691;SDS011;22678;52.052;4.242;2023-05-07T10:54:41;13.88;;;9.20;;
36691;SDS011;22678;52.052;4.242;2023-05-07T11:00:00;16.95;;;9.73;;
36691;SDS011;22678;52.052;4.242;2023-05-07T11:05:26;18.38;;;8.35;;
36691;SDS011;22678;52.052;4.242;2023-05-07T11:07:59;11.35;;;8.57;;
36691;SDS011;22678;52.052;4.242;2023-05-07T11:13:13;14.23;;;9.48;;
36691;SDS011;22678;52.052;4.242;2023-05-07T11:15:44;14.93;;;9.02;;
36691;SDS011;22678;52.052;4.242;2023-05-07T11:18:11;11.85;;;8.85;;
36691;SDS011;22678;52.052;4.242;2023-05-07T11:20:44;17.23;;;10.88;;
36691;SDS011;22678;52.052;4.242;2023-05-07T11:25:58;14.50;;;8.52;;
36691;SDS011;22678;52.052;4.242;2023-05-07T11:28:25;16.42;;;10.13;;
36691;SDS011;22678;52.052;4.242;2023-05-07T11:30:52;16.10;;;11.05;;
36691;SDS011;22678;52.052;4.242;2023-05-07T11:33:18;14.75;;;10.23;;
36691;SDS011;22678;52.052;4.242;2023-05-07T11:35:43;20.23;;;11.98;;
36691;SDS011;22678;52.052;4.242;2023-05-07T11:38:10;17.92;;;11.63;;
36691;SDS011;22678;52.052;4.242;2023-05-07T11:40:48;23.38;;;11.82;;
36691;SDS011;22678;52.052;4.242;2023-05-07T11:43:17;25.60;;;13.30;;
36691;SDS011;22678;52.052;4.242;2023-05-07T11:45:42;12.10;;;9.88;;
36691;SDS011;22678;52.052;4.242;2023-05-07T11:48:09;17.38;;;12.25;;
36691;SDS011;22678;52.052;4.242;2023-05-07T11:50:34;15.70;;;10.90;;
36691;SDS011;22678;52.052;4.242;2023-05-07T11:53:00;16.08;;;10.55;;
36691;SDS011;22678;52.052;4.242;2023-05-07T11:55:25;18.95;;;11.98;;
36691;SDS011;22678;52.052;4.242;2023-05-07T11:57:51;16.95;;;12.20;;
36691;SDS011;22678;52.052;4.242;2023-05-07T12:00:16;17.10;;;11.48;;
36691;SDS011;22678;52.052;4.242;2023-05-07T12:02:43;23.38;;;13.80;;
36691;SDS011;22678;52.052;4.242;2023-05-07T12:05:10;19.27;;;11.70;;
36691;SDS011;22678;52.052;4.242;2023-05-07T12:07:35;19.50;;;14.18;;
36691;SDS011;22678;52.052;4.242;2023-05-07T12:10:04;18.27;;;11.15;;
36691;SDS011;22678;52.052;4.242;2023-05-07T12:12:31;18.15;;;13.48;;
36691;SDS011;22678;52.052;4.242;2023-05-07T12:14:56;14.18;;;11.70;;
36691;SDS011;22678;52.052;4.242;2023-05-07T12:17:21;22.02;;;13.18;;
36691;SDS011;22678;52.052;4.242;2023-05-07T12:19:47;18.92;;;11.88;;
36691;SDS011;22678;52.052;4.242;2023-05-07T12:22:12;21.70;;;12.80;;
36691;SDS011;22678;52.052;4.242;2023-05-07T12:24:48;18.80;;;12.02;;
36691;SDS011;22678;52.052;4.242;2023-05-07T12:27:15;19.27;;;13.70;;
36691;SDS011;22678;52.052;4.242;2023-05-07T12:29:46;19.92;;;14.55;;
36691;SDS011;22678;52.052;4.242;2023-05-07T12:32:18;16.15;;;13.00;;
36691;SDS011;22678;52.052;4.242;2023-05-07T12:34:46;20.73;;;12.13;;
36691;SDS011;22678;52.052;4.242;2023-05-07T12:37:14;16.33;;;11.57;;
36691;SDS011;22678;52.052;4.242;2023-05-07T12:39:50;21.73;;;15.38;;
36691;SDS011;22678;52.052;4.242;2023-05-07T12:42:32;19.10;;;14.75;;
36691;SDS011;22678;52.052;4.242;2023-05-07T12:45:00;21.45;;;12.23;;
36691;SDS011;22678;52.052;4.242;2023-05-07T12:47:27;21.23;;;13.43;;
36691;SDS011;22678;52.052;4.242;2023-05-07T12:49:54;14.55;;;9.23;;
36691;SDS011;22678;52.052;4.242;2023-05-07T12:52:19;21.63;;;11.27;;
36691;SDS011;22678;52.052;4.242;2023-05-07T12:54:45;20.77;;;11.98;;
36691;SDS011;22678;52.052;4.242;2023-05-07T12:57:12;22.55;;;12.70;;
36691;SDS011;22678;52.052;4.242;2023-05-07T12:59:39;16.83;;;12.35;;
36691;SDS011;22678;52.052;4.242;2023-05-07T13:02:05;22.45;;;11.02;;
36691;SDS011;22678;52.052;4.242;2023-05-07T13:04:32;21.27;;;14.05;;
36691;SDS011;22678;52.052;4.242;2023-05-07T13:06:58;19.35;;;12.38;;
36691;SDS011;22678;52.052;4.242;2023-05-07T13:09:24;20.90;;;13.25;;
36691;SDS011;22678;52.052;4.242;2023-05-07T13:11:49;19.15;;;13.85;;
36691;SDS011;22678;52.052;4.242;2023-05-07T13:14:15;18.73;;;12.35;;
36691;SDS011;22678;52.052;4.242;2023-05-07T13:16:40;14.85;;;10.80;;
36691;SDS011;22678;52.052;4.242;2023-05-07T13:19:06;16.48;;;12.30;;
36691;SDS011;22678;52.052;4.242;2023-05-07T13:21:31;18.52;;;11.20;;
36691;SDS011;22678;52.052;4.242;2023-05-07T13:23:57;20.80;;;13.45;;
36691;SDS011;22678;52.052;4.242;2023-05-07T13:26:23;14.60;;;11.27;;
36691;SDS011;22678;52.052;4.242;2023-05-07T13:28:48;19.67;;;12.68;;
36691;SDS011;22678;52.052;4.242;2023-05-07T13:31:14;17.02;;;13.38;;
36691;SDS011;22678;52.052;4.242;2023-05-07T13:33:39;24.80;;;14.95;;
36691;SDS011;22678;52.052;4.242;2023-05-07T13:36:06;18.33;;;11.60;;
36691;SDS011;22678;52.052;4.242;2023-05-07T13:38:31;20.95;;;10.85;;
36691;SDS011;22678;52.052;4.242;2023-05-07T13:40:56;18.88;;;9.93;;
36691;SDS011;22678;52.052;4.242;2023-05-07T13:43:22;21.23;;;11.07;;
36691;SDS011;22678;52.052;4.242;2023-05-07T13:45:47;17.48;;;11.30;;
36691;SDS011;22678;52.052;4.242;2023-05-07T13:48:12;16.88;;;10.45;;
36691;SDS011;22678;52.052;4.242;2023-05-07T13:50:38;17.65;;;8.98;;
36691;SDS011;22678;52.052;4.242;2023-05-07T13:53:03;14.93;;;10.20;;
36691;SDS011;22678;52.052;4.242;2023-05-07T13:55:29;18.17;;;9.07;;
36691;SDS011;22678;52.052;4.242;2023-05-07T13:57:58;14.63;;;8.95;;
36691;SDS011;22678;52.052;4.242;2023-05-07T14:00:25;18.55;;;9.00;;
36691;SDS011;22678;52.052;4.242;2023-05-07T14:02:51;17.27;;;9.23;;
36691;SDS011;22678;52.052;4.242;2023-05-07T14:05:17;18.75;;;10.90;;
36691;SDS011;22678;52.052;4.242;2023-05-07T14:07:42;16.25;;;9.27;;
36691;SDS011;22678;52.052;4.242;2023-05-07T14:10:08;17.23;;;9.15;;
36691;SDS011;22678;52.052;4.242;2023-05-07T14:12:34;15.05;;;7.78;;
36691;SDS011;22678;52.052;4.242;2023-05-07T14:14:59;16.95;;;9.05;;
36691;SDS011;22678;52.052;4.242;2023-05-07T14:17:25;16.30;;;9.48;;
36691;SDS011;22678;52.052;4.242;2023-05-07T14:19:52;14.13;;;8.82;;
36691;SDS011;22678;52.052;4.242;2023-05-07T14:22:21;14.98;;;8.18;;
36691;SDS011;22678;52.052;4.242;2023-05-07T14:24:47;14.73;;;8.82;;
36691;SDS011;22678;52.052;4.242;2023-05-07T14:27:14;17.58;;;10.98;;
36691;SDS011;22678;52.052;4.242;2023-05-07T14:29:39;15.63;;;10.02;;
36691;SDS011;22678;52.052;4.242;2023-05-07T14:32:05;17.90;;;10.60;;
36691;SDS011;22678;52.052;4.242;2023-05-07T14:34:30;18.77;;;11.55;;
36691;SDS011;22678;52.052;4.242;2023-05-07T14:36:56;21.17;;;12.48;;
36691;SDS011;22678;52.052;4.242;2023-05-07T14:39:21;24.23;;;14.27;;